Alan T — WDC9571 — position and weather

sailwx.info

Track history (hours):
 
Tides and Currents Weather Stations Pressure Air Temp Water Temp Dewpoint Dewpoint Depression Visibility Wind Speed Wind Dir Waves Ship Positions

Alan T

Owner: SO CAL SHIP SERVICES, INC, TERMINAL ISLAND, CA. More information available from US FCC via Universal Licensing System and Coast Guard Vessel Documentation Center.

Last reported at 2018-Jun-18 13:00 UTC. Time now 2018-Jun-18 13:14 UTC.
Position N 34°23' W 119°31'.

Length 30 m; draft 2.5 m.

Type: Ship (hazmat cat B). MMSI: 367104060.

Date/timePositionNaut miles runAvg speedWind from/ knotsBaromVisibWave heightAir tempDewpointWater temp
2018-Jun-18 13:00N 34°23' W 119°31'1 0.8
2018-Jun-18 12:20N 34°22' W 119°30'0 0.0
2018-Jun-18 11:59N 34°22' W 119°30'0 0.0
2018-Jun-18 11:28N 34°22' W 119°30'0 0.0
2018-Jun-18 10:59N 34°22' W 119°30'0 0.0
2018-Jun-18 10:28N 34°22' W 119°30'0 0.0
2018-Jun-18 10:01N 34°22' W 119°30'0 0.0
2018-Jun-18 09:29N 34°22' W 119°30'0 0.0
2018-Jun-18 08:59N 34°22' W 119°30'0 0.0
2018-Jun-18 08:28N 34°22' W 119°30'0 0.0
2018-Jun-18 08:00N 34°22' W 119°30'0 0.0
2018-Jun-18 07:27N 34°22' W 119°30'0 0.0
2018-Jun-18 06:58N 34°22' W 119°30'0 0.0
2018-Jun-18 06:31N 34°22' W 119°30'0 0.0
2018-Jun-18 06:00N 34°22' W 119°30'0 0.0
2018-Jun-18 05:30N 34°22' W 119°30'0 0.0
2018-Jun-18 04:58N 34°22' W 119°30'0 0.0
2018-Jun-18 04:31N 34°22' W 119°30'0 0.0
2018-Jun-18 03:59N 34°22' W 119°30'0 0.0
2018-Jun-18 03:29N 34°22' W 119°30'0 0.0
2018-Jun-18 03:00N 34°22' W 119°30'1 1.4
2018-Jun-18 02:29N 34°23' W 119°30'713.8
2018-Jun-18 02:00N 34°20' W 119°38'4 7.9
2018-Jun-18 01:30N 34°21' W 119°33'3 5.8
2018-Jun-18 00:58N 34°23' W 119°31'3 5.8
2018-Jun-18 00:29N 34°21' W 119°33'1 2.0
2018-Jun-17 23:56N 34°20' W 119°34'0 0.0
2018-Jun-17 23:30N 34°20' W 119°34'0 0.0
2018-Jun-17 23:00N 34°20' W 119°34'0 0.0
2018-Jun-17 22:29N 34°20' W 119°34'1 3.0
2018-Jun-17 22:00N 34°20' W 119°35'1 1.3
2018-Jun-17 21:30N 34°20' W 119°36'0 0.0
2018-Jun-17 21:00N 34°20' W 119°36'0 0.0
2018-Jun-17 20:29N 34°20' W 119°36'0 0.0
2018-Jun-17 19:58N 34°20' W 119°36'0 0.0
2018-Jun-17 19:30N 34°20' W 119°36'611.5
2018-Jun-17 19:00N 34°20' W 119°29'510.9
2018-Jun-17 18:30N 34°20' W 119°36'1 2.5
2018-Jun-17 18:00N 34°20' W 119°37'3 5.7
2018-Jun-17 17:29N 34°20' W 119°34'0 0.2
2018-Jun-17 17:00N 34°20' W 119°34'3 5.9
2018-Jun-17 16:30N 34°17' W 119°35'0 0.0
2018-Jun-17 15:59N 34°17' W 119°35'0 0.0
2018-Jun-17 15:29N 34°17' W 119°35'3 6.1
2018-Jun-17 15:00N 34°20' W 119°34'1 1.9
2018-Jun-17 14:30N 34°21' W 119°33'4 8.0
2018-Jun-17 13:59N 34°20' W 119°38'612.6
2018-Jun-17 13:30N 34°22' W 119°31'1 1.9
2018-Jun-17 13:00N 34°23' W 119°30'1 1.4
2018-Jun-17 12:27N 34°22' W 119°30'0 0.0
2018-Jun-17 11:50N 34°22' W 119°30'0 0.0
2018-Jun-17 11:23N 34°22' W 119°30'0 0.0
2018-Jun-17 10:59N 34°22' W 119°30'0 0.0
2018-Jun-17 10:30N 34°22' W 119°30'0 0.0
2018-Jun-17 10:00N 34°22' W 119°30'0 0.0
2018-Jun-17 09:29N 34°22' W 119°30'0 0.0
2018-Jun-17 09:00N 34°22' W 119°30'0 0.0
2018-Jun-17 08:29N 34°22' W 119°30'0 0.0
2018-Jun-17 07:58N 34°22' W 119°30'0 0.0
2018-Jun-17 07:29N 34°22' W 119°30'0 0.0
2018-Jun-17 06:57N 34°22' W 119°30'0 0.0
2018-Jun-17 06:29N 34°22' W 119°30'0 0.0
2018-Jun-17 05:49N 34°22' W 119°30'0 0.0
2018-Jun-17 05:30N 34°22' W 119°30'0 0.0
2018-Jun-17 04:57N 34°22' W 119°30'0 0.0
2018-Jun-17 04:29N 34°22' W 119°30'0 0.0
2018-Jun-17 03:59N 34°22' W 119°30'0 0.0
2018-Jun-17 03:27N 34°22' W 119°30'0 0.0
2018-Jun-17 02:57N 34°22' W 119°30'0 0.0
2018-Jun-17 02:30N 34°22' W 119°30'5 9.3
2018-Jun-17 02:00N 34°20' W 119°35'2 3.8
2018-Jun-17 01:30N 34°21' W 119°33'3 5.3
2018-Jun-17 01:00N 34°23' W 119°31'0 0.4
2018-Jun-17 00:30N 34°23' W 119°31'611.9
2018-Jun-16 23:59N 34°20' W 119°37'0 0.0
2018-Jun-16 23:29N 34°20' W 119°37'3 7.1
2018-Jun-16 23:00N 34°23' W 119°38'3 6.2
2018-Jun-16 22:30N 34°24' W 119°42'0 0.0
2018-Jun-16 21:56N 34°24' W 119°42'0 0.0
2018-Jun-16 21:25N 34°24' W 119°42'1 3.1
2018-Jun-16 20:59N 34°24' W 119°40'510.7
2018-Jun-16 20:30N 34°20' W 119°36'5 9.7
2018-Jun-16 19:57N 34°23' W 119°30'3 7.9
2018-Jun-16 19:31N 34°20' W 119°29'915.9
2018-Jun-16 18:58N 34°12' W 119°26'1 1.8
2018-Jun-16 18:30N 34°11' W 119°25'0 0.1
2018-Jun-16 18:00N 34°11' W 119°25'0 0.0
2018-Jun-16 17:29N 34°11' W 119°25'613.4
2018-Jun-16 17:00N 34°16' W 119°31'713.5
2018-Jun-16 16:30N 34°20' W 119°37'0 0.2
2018-Jun-16 16:00N 34°20' W 119°37'1 1.2
2018-Jun-16 15:30N 34°20' W 119°36'0 0.2
2018-Jun-16 15:00N 34°20' W 119°36'4 9.0
2018-Jun-16 14:30N 34°22' W 119°31'611.7
2018-Jun-16 14:00N 34°20' W 119°38'611.5
2018-Jun-16 13:30N 34°22' W 119°31'1 2.9
2018-Jun-16 13:00N 34°23' W 119°30'1 1.3
2018-Jun-16 12:28N 34°22' W 119°30'0 0.0
2018-Jun-16 11:57N 34°23' W 119°30'0 0.0
2018-Jun-16 11:29N 34°23' W 119°30'0 0.0
2018-Jun-16 10:59N 34°23' W 119°30'0 0.0
2018-Jun-16 10:29N 34°23' W 119°30'0 0.0
2018-Jun-16 10:00N 34°23' W 119°30'0 0.1
2018-Jun-16 09:30N 34°23' W 119°30'0 0.0
2018-Jun-16 09:01N 34°23' W 119°30'0 0.0
2018-Jun-16 08:27N 34°23' W 119°30'0 0.0
2018-Jun-16 07:53N 34°23' W 119°30'0 0.0
2018-Jun-16 07:30N 34°23' W 119°30'0 0.0
2018-Jun-16 07:00N 34°23' W 119°30'0 0.0
2018-Jun-16 06:29N 34°23' W 119°30'612.2
2018-Jun-16 06:00N 34°20' W 119°36'611.6
2018-Jun-16 05:30N 34°22' W 119°30'0 0.0
2018-Jun-16 05:00N 34°22' W 119°30'0 0.0
2018-Jun-16 04:27N 34°22' W 119°30'0 0.0
2018-Jun-16 03:58N 34°22' W 119°30'0 0.0
2018-Jun-16 03:28N 34°22' W 119°30'0 0.0
2018-Jun-16 03:00N 34°22' W 119°30'0 0.0
2018-Jun-16 02:30N 34°22' W 119°30'0 0.0
2018-Jun-16 01:59N 34°22' W 119°30'0 0.7
2018-Jun-16 01:30N 34°23' W 119°30'0 0.8
2018-Jun-16 00:59N 34°23' W 119°30'1 1.5
2018-Jun-16 00:29N 34°22' W 119°30'0 0.0
2018-Jun-15 23:58N 34°22' W 119°30'0 0.0
2018-Jun-15 23:29N 34°22' W 119°30'0 0.5
2018-Jun-15 23:00N 34°23' W 119°30'6 9.4
2018-Jun-15 22:24N 34°20' W 119°36'1 2.0
2018-Jun-15 22:00N 34°20' W 119°37'3 5.3
2018-Jun-15 21:30N 34°20' W 119°34'0 0.0
2018-Jun-15 20:58N 34°20' W 119°34'0 0.0
2018-Jun-15 20:24N 34°20' W 119°34'1 1.9
2018-Jun-15 19:59N 34°20' W 119°33'3 5.9
2018-Jun-15 19:29N 34°23' W 119°31'611.6
2018-Jun-15 18:57N 34°20' W 119°37'0 0.0
2018-Jun-15 18:22N 34°20' W 119°37'0 0.0
2018-Jun-15 17:55N 34°20' W 119°37'1 2.4
2018-Jun-15 17:30N 34°20' W 119°36'0 0.1
2018-Jun-15 16:59N 34°20' W 119°36'0 0.0
2018-Jun-15 16:28N 34°20' W 119°36'1 2.4
2018-Jun-15 15:54N 34°20' W 119°35'511.8
2018-Jun-15 15:31N 34°23' W 119°30'4 7.6
2018-Jun-15 14:59N 34°20' W 119°34'3 6.1
2018-Jun-15 14:30N 34°20' W 119°37'2 3.7
2018-Jun-15 13:56N 34°20' W 119°35'511.0
2018-Jun-15 13:30N 34°23' W 119°30'0 0.3
2018-Jun-15 13:00N 34°23' W 119°30'1 1.2
2018-Jun-15 12:30N 34°23' W 119°30'0 0.0
2018-Jun-15 12:00N 34°23' W 119°30'0 0.0
2018-Jun-15 11:29N 34°23' W 119°30'0 0.0
2018-Jun-15 10:55N 34°23' W 119°30'0 0.0
2018-Jun-15 10:27N 34°23' W 119°30'4 8.7
2018-Jun-15 09:59N 34°20' W 119°34'0 0.3
2018-Jun-15 09:30N 34°20' W 119°34'0 0.0
2018-Jun-15 08:57N 34°20' W 119°34'0 0.0
2018-Jun-15 08:30N 34°20' W 119°34'0 0.0
2018-Jun-15 07:59N 34°20' W 119°34'0 0.0
2018-Jun-15 07:26N 34°20' W 119°34'0 0.0
2018-Jun-15 06:53N 34°20' W 119°34'0 0.1
2018-Jun-15 06:24N 34°20' W 119°34'0 0.0
2018-Jun-15 05:57N 34°20' W 119°34'0 0.0
2018-Jun-15 05:14N 34°20' W 119°34'0 0.0
2018-Jun-15 04:56N 34°20' W 119°34'0 0.0
2018-Jun-15 04:20N 34°20' W 119°34'0 0.0
2018-Jun-15 03:52N 34°20' W 119°34'0 0.1
2018-Jun-15 03:24N 34°20' W 119°34'1 2.6
2018-Jun-15 02:55N 34°21' W 119°32'1 2.6
2018-Jun-15 02:26N 34°20' W 119°34'0 0.6
2018-Jun-15 01:53N 34°20' W 119°34'4 8.9
2018-Jun-15 01:28N 34°23' W 119°31'0 0.7
2018-Jun-15 01:00N 34°23' W 119°31'3 6.6
2018-Jun-15 00:30N 34°20' W 119°34'0 0.0
2018-Jun-14 23:58N 34°20' W 119°34'1 1.5
2018-Jun-14 23:30N 34°20' W 119°33'3 6.6
2018-Jun-14 23:00N 34°23' W 119°30'611.4
2018-Jun-14 22:30N 34°20' W 119°36'0 0.1
2018-Jun-14 22:00N 34°20' W 119°36'0 0.1
2018-Jun-14 21:30N 34°20' W 119°36'1 1.5
2018-Jun-14 21:00N 34°20' W 119°35'2 4.1
2018-Jun-14 20:30N 34°20' W 119°38'1 1.2
2018-Jun-14 19:59N 34°20' W 119°37'0 0.7
2018-Jun-14 19:30N 34°20' W 119°37'0 0.9
2018-Jun-14 19:00N 34°20' W 119°36'3 6.2
2018-Jun-14 18:30N 34°21' W 119°33'3 5.9
2018-Jun-14 18:00N 34°23' W 119°30'0 0.1
2018-Jun-14 17:30N 34°23' W 119°31'612.5
2018-Jun-14 17:00N 34°20' W 119°37'3 5.9
2018-Jun-14 16:30N 34°20' W 119°34'4 7.9
2018-Jun-14 16:00N 34°23' W 119°30'0 0.0
2018-Jun-14 15:29N 34°23' W 119°30'0 0.1
2018-Jun-14 14:59N 34°23' W 119°30'5 9.9
2018-Jun-14 14:30N 34°20' W 119°35'0 0.4
2018-Jun-14 14:00N 34°20' W 119°35'5 9.5
2018-Jun-14 13:30N 34°23' W 119°30'0 0.3
2018-Jun-14 12:58N 34°23' W 119°30'1 1.6
2018-Jun-14 12:30N 34°22' W 119°30'0 0.0
2018-Jun-14 12:00N 34°22' W 119°30'0 0.0
2018-Jun-14 11:24N 34°22' W 119°30'0 0.0
2018-Jun-14 10:59N 34°23' W 119°30'0 0.0
2018-Jun-14 10:29N 34°23' W 119°30'0 0.0
2018-Jun-14 10:00N 34°23' W 119°30'0 0.0
2018-Jun-14 09:29N 34°23' W 119°30'4 9.4
2018-Jun-14 09:00N 34°20' W 119°34'1 1.0
2018-Jun-14 08:30N 34°20' W 119°34'2 4.6
2018-Jun-14 08:00N 34°22' W 119°32'2 4.4
2018-Jun-14 07:30N 34°20' W 119°34'0 0.0
2018-Jun-14 07:00N 34°20' W 119°34'0 0.0
2018-Jun-14 06:24N 34°20' W 119°34'0 0.0
2018-Jun-14 06:00N 34°20' W 119°34'0 0.0
2018-Jun-14 05:30N 34°20' W 119°34'0 0.0
2018-Jun-14 05:00N 34°20' W 119°34'0 0.0
2018-Jun-14 04:30N 34°20' W 119°34'0 0.0
2018-Jun-14 04:00N 34°20' W 119°34'0 0.2
2018-Jun-14 03:30N 34°20' W 119°34'0 1.0
2018-Jun-14 03:00N 34°20' W 119°33'0 0.3
2018-Jun-14 02:30N 34°20' W 119°33'3 5.2
2018-Jun-14 01:59N 34°20' W 119°36'611.8
2018-Jun-14 01:30N 34°23' W 119°30'0 0.8
2018-Jun-14 01:00N 34°23' W 119°31'1 1.6
2018-Jun-14 00:29N 34°22' W 119°30'0 0.0
2018-Jun-14 00:00N 34°23' W 119°30'0 0.0
2018-Jun-13 23:30N 34°23' W 119°30'1 1.5
2018-Jun-13 23:00N 34°23' W 119°30'4 8.3
2018-Jun-13 22:30N 34°20' W 119°34'2 3.6
2018-Jun-13 21:59N 34°20' W 119°36'1 2.3
2018-Jun-13 21:31N 34°19' W 119°37'2 4.8
2018-Jun-13 21:01N 34°21' W 119°37'5 9.9
2018-Jun-13 20:30N 34°24' W 119°42'0 0.0
2018-Jun-13 20:00N 34°24' W 119°42'0 0.0
2018-Jun-13 19:30N 34°24' W 119°42'0 0.0
2018-Jun-13 19:00N 34°24' W 119°42'2 3.5
2018-Jun-13 18:30N 34°24' W 119°39'714.9
2018-Jun-13 18:01N 34°17' W 119°35'4 7.3
2018-Jun-13 17:30N 34°20' W 119°33'3 5.7
2018-Jun-13 17:01N 34°23' W 119°31'510.0
2018-Jun-13 16:30N 34°20' W 119°36'2 4.0
2018-Jun-13 16:00N 34°18' W 119°35'5 9.4
2018-Jun-13 15:30N 34°22' W 119°31'2 4.6
2018-Jun-13 15:00N 34°20' W 119°33'3 5.6
2018-Jun-13 14:30N 34°20' W 119°36'2 3.2
2018-Jun-13 14:00N 34°20' W 119°34'4 8.7
2018-Jun-13 13:30N 34°23' W 119°30'0 0.0
2018-Jun-13 12:59N 34°23' W 119°30'3 5.3
2018-Jun-13 12:29N 34°21' W 119°32'1 3.0
2018-Jun-13 12:00N 34°20' W 119°34'0 0.0
2018-Jun-13 11:30N 34°20' W 119°34'0 0.0
2018-Jun-13 11:00N 34°20' W 119°34'0 0.0
2018-Jun-13 10:24N 34°20' W 119°34'0 0.0
2018-Jun-13 10:00N 34°20' W 119°34'0 0.0
2018-Jun-13 09:27N 34°20' W 119°34'0 0.0
2018-Jun-13 08:59N 34°20' W 119°34'0 0.0
2018-Jun-13 08:28N 34°20' W 119°34'0 0.0
2018-Jun-13 07:58N 34°20' W 119°34'0 0.0
2018-Jun-13 07:28N 34°20' W 119°34'0 0.0
2018-Jun-13 06:53N 34°20' W 119°34'0 0.0
2018-Jun-13 06:29N 34°20' W 119°34'0 0.0
2018-Jun-13 05:58N 34°20' W 119°34'0 0.0
2018-Jun-13 05:30N 34°20' W 119°34'0 0.0
2018-Jun-13 05:00N 34°20' W 119°34'0 0.0
2018-Jun-13 04:30N 34°20' W 119°34'0 0.0
2018-Jun-13 04:00N 34°20' W 119°34'0 0.2
2018-Jun-13 03:12N 34°20' W 119°34'1 4.1
2018-Jun-13 02:59N 34°20' W 119°33'1 1.6
2018-Jun-13 02:27N 34°20' W 119°34'2 4.7
2018-Jun-13 02:00N 34°20' W 119°36'611.0
2018-Jun-13 01:30N 34°23' W 119°30'1 1.3
2018-Jun-13 01:00N 34°22' W 119°31'1 1.2
2018-Jun-13 00:26N 34°22' W 119°30'0 0.0
2018-Jun-13 00:00N 34°22' W 119°30'0 0.0
2018-Jun-12 23:30N 34°22' W 119°30'1 1.5
2018-Jun-12 23:00N 34°23' W 119°30'3 5.2
2018-Jun-12 22:30N 34°21' W 119°32'4 8.9
2018-Jun-12 22:00N 34°20' W 119°38'2 3.3
2018-Jun-12 21:30N 34°19' W 119°36'1 2.0
2018-Jun-12 21:00N 34°20' W 119°37'0 0.9
2018-Jun-12 20:30N 34°20' W 119°37'0 0.0
2018-Jun-12 20:00N 34°20' W 119°37'0 0.9
2018-Jun-12 19:30N 34°20' W 119°37'1 1.8
2018-Jun-12 19:00N 34°20' W 119°38'4 7.1
2018-Jun-12 18:30N 34°20' W 119°34'2 4.1
2018-Jun-12 17:59N 34°20' W 119°36'0 0.1
2018-Jun-12 17:30N 34°20' W 119°36'2 4.0
2018-Jun-12 16:58N 34°20' W 119°34'3 7.3
2018-Jun-12 16:30N 34°23' W 119°31'1 1.2
2018-Jun-12 15:58N 34°23' W 119°30'0 0.0
2018-Jun-12 15:30N 34°23' W 119°30'2 3.3
2018-Jun-12 15:00N 34°22' W 119°32'4 8.1
2018-Jun-12 14:28N 34°19' W 119°36'1 1.3
2018-Jun-12 14:00N 34°20' W 119°36'611.2
2018-Jun-12 13:30N 34°23' W 119°30'0 0.7
2018-Jun-12 12:59N 34°23' W 119°31'1 1.9
2018-Jun-12 12:30N 34°22' W 119°31'3 5.5
2018-Jun-12 12:00N 34°20' W 119°34'0 0.0
2018-Jun-12 11:27N 34°20' W 119°34'0 0.0
2018-Jun-12 11:00N 34°20' W 119°34'0 0.0
2018-Jun-12 10:30N 34°20' W 119°34'0 0.0
2018-Jun-12 10:00N 34°20' W 119°34'0 0.0
2018-Jun-12 09:30N 34°20' W 119°34'0 0.0
2018-Jun-12 08:59N 34°20' W 119°34'0 0.0
2018-Jun-12 08:30N 34°20' W 119°34'0 0.0
2018-Jun-12 08:00N 34°20' W 119°34'0 0.0
2018-Jun-12 07:30N 34°20' W 119°34'0 0.0
2018-Jun-12 06:59N 34°20' W 119°34'0 0.0
2018-Jun-12 06:28N 34°20' W 119°34'0 0.3
2018-Jun-12 06:00N 34°20' W 119°34'0 0.1
2018-Jun-12 05:29N 34°20' W 119°34'0 0.4
2018-Jun-12 05:00N 34°20' W 119°33'0 0.3
2018-Jun-12 04:30N 34°20' W 119°34'3 5.3
2018-Jun-12 04:01N 34°20' W 119°37'0 0.0
2018-Jun-12 03:30N 34°20' W 119°37'0 0.4
2018-Jun-12 03:00N 34°20' W 119°37'611.4
2018-Jun-12 02:30N 34°23' W 119°31'611.6
2018-Jun-12 02:00N 34°20' W 119°37'612.3
2018-Jun-12 01:30N 34°23' W 119°30'1 1.0
2018-Jun-12 00:59N 34°23' W 119°31'1 1.7
2018-Jun-12 00:29N 34°23' W 119°30'1 2.8
2018-Jun-12 00:00N 34°22' W 119°31'4 9.0
2018-Jun-11 23:30N 34°20' W 119°36'611.4
2018-Jun-11 23:00N 34°22' W 119°30'2 4.9
2018-Jun-11 22:30N 34°21' W 119°32'5 9.0
2018-Jun-11 21:58N 34°20' W 119°38'3 7.5
2018-Jun-11 21:30N 34°17' W 119°35'3 6.3
2018-Jun-11 21:00N 34°20' W 119°37'1 1.9
2018-Jun-11 20:30N 34°20' W 119°36'0 0.1
2018-Jun-11 20:00N 34°20' W 119°36'2 4.1
2018-Jun-11 19:30N 34°20' W 119°34'0 0.0
2018-Jun-11 19:00N 34°20' W 119°34'2 4.7
2018-Jun-11 18:30N 34°20' W 119°37'0 0.4
2018-Jun-11 18:00N 34°20' W 119°37'611.1
2018-Jun-11 17:29N 34°25' W 119°41'0 0.7
2018-Jun-11 16:59N 34°24' W 119°42'0 0.8
2018-Jun-11 16:30N 34°25' W 119°41'612.0
2018-Jun-11 16:00N 34°20' W 119°36'611.4
2018-Jun-11 15:29N 34°23' W 119°30'5 9.7
2018-Jun-11 14:59N 34°19' W 119°34'2 4.6
2018-Jun-11 14:30N 34°20' W 119°37'1 1.4
2018-Jun-11 13:59N 34°20' W 119°36'510.6
2018-Jun-11 13:30N 34°23' W 119°31'0 0.4
2018-Jun-11 12:58N 34°23' W 119°31'1 1.6
2018-Jun-11 12:26N 34°22' W 119°30'0 0.0
2018-Jun-11 11:58N 34°23' W 119°30'0 0.0
2018-Jun-11 11:30N 34°23' W 119°30'0 0.0
2018-Jun-11 10:59N 34°23' W 119°30'0 0.0
2018-Jun-11 10:30N 34°23' W 119°30'0 0.0
2018-Jun-11 10:00N 34°23' W 119°30'0 0.0
2018-Jun-11 09:30N 34°23' W 119°30'0 0.0
2018-Jun-11 09:00N 34°23' W 119°30'0 0.0
2018-Jun-11 08:30N 34°23' W 119°30'0 0.0
2018-Jun-11 07:59N 34°23' W 119°30'0 0.0
2018-Jun-11 07:27N 34°23' W 119°30'0 0.0
2018-Jun-11 06:58N 34°23' W 119°30'0 0.0
2018-Jun-11 06:30N 34°23' W 119°30'0 0.0
2018-Jun-11 06:00N 34°23' W 119°30'0 0.0
2018-Jun-11 05:28N 34°23' W 119°30'0 0.0
2018-Jun-11 05:00N 34°23' W 119°30'0 0.0
2018-Jun-11 04:29N 34°23' W 119°30'0 0.0
2018-Jun-11 04:00N 34°23' W 119°30'0 0.0
2018-Jun-11 03:30N 34°23' W 119°30'0 0.0
2018-Jun-11 02:58N 34°23' W 119°30'0 0.0
2018-Jun-11 02:30N 34°23' W 119°30'0 0.0
2018-Jun-11 02:00N 34°23' W 119°30'5 8.9
2018-Jun-11 01:30N 34°20' W 119°35'3 5.1
2018-Jun-11 01:00N 34°21' W 119°32'2 4.0
2018-Jun-11 00:30N 34°23' W 119°30'0 0.0
2018-Jun-11 00:00N 34°23' W 119°30'0 0.0
2018-Jun-10 23:30N 34°23' W 119°30'0 0.0
2018-Jun-10 23:00N 34°23' W 119°30'4 8.6
2018-Jun-10 22:30N 34°20' W 119°34'3 5.5
2018-Jun-10 22:00N 34°18' W 119°36'0 0.8
2018-Jun-10 21:30N 34°17' W 119°35'0 0.0
2018-Jun-10 21:00N 34°17' W 119°35'0 0.0
2018-Jun-10 20:29N 34°17' W 119°35'0 0.0
2018-Jun-10 20:00N 34°17' W 119°35'0 0.5
2018-Jun-10 19:30N 34°17' W 119°35'3 6.1
2018-Jun-10 19:00N 34°20' W 119°34'0 0.4
2018-Jun-10 18:30N 34°20' W 119°34'0 0.0
2018-Jun-10 18:00N 34°20' W 119°34'0 0.0
2018-Jun-10 17:30N 34°20' W 119°34'0 0.0
2018-Jun-10 17:00N 34°20' W 119°34'0 0.0
2018-Jun-10 16:31N 34°20' W 119°34'3 5.8
2018-Jun-10 15:59N 34°20' W 119°38'5 8.9
2018-Jun-10 15:28N 34°20' W 119°32'3 6.3
2018-Jun-10 15:00N 34°20' W 119°28'4 8.8
2018-Jun-10 14:30N 34°20' W 119°34'4 3.9
2018-Jun-10 13:31N 34°23' W 119°31'0 0.4
2018-Jun-10 13:00N 34°23' W 119°31'1 1.2
2018-Jun-10 12:29N 34°23' W 119°30'0 0.0
2018-Jun-10 12:00N 34°23' W 119°30'0 0.0
2018-Jun-10 11:30N 34°23' W 119°30'0 0.0
2018-Jun-10 10:57N 34°23' W 119°30'0 0.0
2018-Jun-10 10:29N 34°23' W 119°30'0 0.0
2018-Jun-10 09:58N 34°23' W 119°30'0 0.0
2018-Jun-10 09:29N 34°23' W 119°30'0 0.0
2018-Jun-10 08:57N 34°23' W 119°30'0 0.0
2018-Jun-10 08:28N 34°23' W 119°30'0 0.0
2018-Jun-10 07:58N 34°23' W 119°30'0 0.0
2018-Jun-10 07:29N 34°23' W 119°30'0 0.0
2018-Jun-10 07:00N 34°23' W 119°30'0 0.0
2018-Jun-10 06:30N 34°23' W 119°30'0 0.0
2018-Jun-10 06:00N 34°23' W 119°30'0 0.0
2018-Jun-10 05:30N 34°23' W 119°30'0 0.0
2018-Jun-10 04:59N 34°23' W 119°30'0 0.0
2018-Jun-10 04:30N 34°23' W 119°30'0 0.0
2018-Jun-10 03:57N 34°23' W 119°30'0 0.0
2018-Jun-10 03:30N 34°23' W 119°30'0 0.0
2018-Jun-10 02:58N 34°23' W 119°30'0 0.0
2018-Jun-10 02:29N 34°23' W 119°30'0 0.0
2018-Jun-10 02:00N 34°23' W 119°30'0 0.0
2018-Jun-10 01:30N 34°23' W 119°30'0 0.0
2018-Jun-10 01:01N 34°23' W 119°30'0 0.0
2018-Jun-10 00:26N 34°23' W 119°30'0 0.0
2018-Jun-09 23:58N 34°23' W 119°30'0 0.0
2018-Jun-09 23:30N 34°23' W 119°30'0 0.0
2018-Jun-09 23:00N 34°23' W 119°30'2 3.2
2018-Jun-09 22:30N 34°22' W 119°32'2 4.8
2018-Jun-09 22:01N 34°20' W 119°34'3 6.9
2018-Jun-09 21:30N 34°20' W 119°38'1 2.8
2018-Jun-09 21:00N 34°20' W 119°36'611.6
2018-Jun-09 20:29N 34°24' W 119°41'0 0.7
2018-Jun-09 19:57N 34°24' W 119°42'0 0.0
2018-Jun-09 19:29N 34°24' W 119°42'0 0.0
2018-Jun-09 19:00N 34°24' W 119°42'0 0.0
2018-Jun-09 18:27N 34°24' W 119°42'4 7.9
2018-Jun-09 17:59N 34°23' W 119°37'3 6.0
2018-Jun-09 17:29N 34°20' W 119°36'0 0.0
2018-Jun-09 16:58N 34°20' W 119°36'0 0.0
2018-Jun-09 16:28N 34°20' W 119°36'0 0.0
2018-Jun-09 15:58N 34°20' W 119°36'0 0.1
2018-Jun-09 15:00N 34°20' W 119°36'0 0.5
2018-Jun-09 14:30N 34°20' W 119°36'1 3.0
2018-Jun-09 14:01N 34°20' W 119°38'612.6
2018-Jun-09 13:30N 34°23' W 119°31'0 0.3
2018-Jun-09 13:00N 34°23' W 119°31'1 1.4
2018-Jun-09 12:29N 34°22' W 119°30'0 0.0
2018-Jun-09 12:00N 34°23' W 119°30'0 0.0
2018-Jun-09 11:29N 34°23' W 119°30'0 0.0
2018-Jun-09 10:57N 34°23' W 119°30'0 0.0
2018-Jun-09 10:29N 34°23' W 119°30'0 0.0
2018-Jun-09 10:00N 34°23' W 119°30'0 0.0
2018-Jun-09 09:28N 34°23' W 119°30'0 0.0
2018-Jun-09 09:00N 34°23' W 119°30'0 0.0
2018-Jun-09 08:30N 34°23' W 119°30'0 0.0
2018-Jun-09 07:55N 34°23' W 119°30'0 0.0
2018-Jun-09 07:30N 34°23' W 119°30'0 0.0
2018-Jun-09 07:00N 34°23' W 119°30'0 0.0
2018-Jun-09 06:28N 34°23' W 119°30'0 0.0
2018-Jun-09 05:58N 34°23' W 119°30'0 0.0
2018-Jun-09 05:25N 34°23' W 119°30'0 0.0
2018-Jun-09 05:00N 34°23' W 119°30'0 0.0
2018-Jun-09 04:29N 34°23' W 119°30'0 0.0
2018-Jun-09 04:00N 34°23' W 119°30'0 0.0
2018-Jun-09 03:30N 34°23' W 119°30'0 0.0
2018-Jun-09 02:59N 34°23' W 119°30'0 0.0
2018-Jun-09 02:29N 34°22' W 119°30'0 0.0
2018-Jun-09 01:59N 34°23' W 119°30'4 8.4
2018-Jun-09 01:30N 34°20' W 119°34'2 4.7
2018-Jun-09 01:00N 34°21' W 119°32'2 3.4
2018-Jun-09 00:29N 34°23' W 119°30'0 0.0
2018-Jun-08 23:58N 34°23' W 119°30'0 0.0
2018-Jun-08 23:29N 34°23' W 119°30'1 1.5
2018-Jun-08 22:59N 34°23' W 119°30'510.3
2018-Jun-08 22:31N 34°20' W 119°35'1 1.8
2018-Jun-08 22:00N 34°20' W 119°36'2 4.2
2018-Jun-08 21:30N 34°20' W 119°34'3 5.4
2018-Jun-08 21:00N 34°20' W 119°37'1 2.9
2018-Jun-08 20:30N 34°19' W 119°35'611.2
2018-Jun-08 20:00N 34°23' W 119°30'4 8.4
2018-Jun-08 19:30N 34°20' W 119°34'3 5.6
2018-Jun-08 19:00N 34°20' W 119°37'0 0.3
2018-Jun-08 18:28N 34°20' W 119°37'0 0.0
2018-Jun-08 17:57N 34°20' W 119°37'0 0.0
2018-Jun-08 17:29N 34°20' W 119°37'0 1.0
2018-Jun-08 17:00N 34°20' W 119°38'0 0.6
2018-Jun-08 16:30N 34°20' W 119°38'611.9
2018-Jun-08 16:01N 34°22' W 119°31'1 1.3
2018-Jun-08 15:28N 34°23' W 119°30'2 3.3
2018-Jun-08 14:59N 34°22' W 119°32'511.0
2018-Jun-08 14:31N 34°18' W 119°36'2 4.4
2018-Jun-08 14:00N 34°20' W 119°36'611.4
2018-Jun-08 13:30N 34°23' W 119°30'  
Track history (hours):
 
Tides and Currents Weather Stations Pressure Air Temp Water Temp Dewpoint Dewpoint Depression Visibility Wind Speed Wind Dir Waves Ship Positions

Alan T

Owner: SO CAL SHIP SERVICES, INC, TERMINAL ISLAND, CA. More information available from US FCC via Universal Licensing System and Coast Guard Vessel Documentation Center.

Last reported at 2018-Jun-18 13:00 UTC. Time now 2018-Jun-18 13:14 UTC.
Position N 34°23' W 119°31'.

Length 30 m; draft 2.5 m.

Type: Ship (hazmat cat B). MMSI: 367104060.

Date/timePositionNaut miles runAvg speedWind from/ knotsBaromVisibWave heightAir tempDewpointWater temp
2018-Jun-18 13:00N 34°23' W 119°31'1 0.8
2018-Jun-18 12:20N 34°22' W 119°30'0 0.0
2018-Jun-18 11:59N 34°22' W 119°30'0 0.0
2018-Jun-18 11:28N 34°22' W 119°30'0 0.0
2018-Jun-18 10:59N 34°22' W 119°30'0 0.0
2018-Jun-18 10:28N 34°22' W 119°30'0 0.0
2018-Jun-18 10:01N 34°22' W 119°30'0 0.0
2018-Jun-18 09:29N 34°22' W 119°30'0 0.0
2018-Jun-18 08:59N 34°22' W 119°30'0 0.0
2018-Jun-18 08:28N 34°22' W 119°30'0 0.0
2018-Jun-18 08:00N 34°22' W 119°30'0 0.0
2018-Jun-18 07:27N 34°22' W 119°30'0 0.0
2018-Jun-18 06:58N 34°22' W 119°30'0 0.0
2018-Jun-18 06:31N 34°22' W 119°30'0 0.0
2018-Jun-18 06:00N 34°22' W 119°30'0 0.0
2018-Jun-18 05:30N 34°22' W 119°30'0 0.0
2018-Jun-18 04:58N 34°22' W 119°30'0 0.0
2018-Jun-18 04:31N 34°22' W 119°30'0 0.0
2018-Jun-18 03:59N 34°22' W 119°30'0 0.0
2018-Jun-18 03:29N 34°22' W 119°30'0 0.0
2018-Jun-18 03:00N 34°22' W 119°30'1 1.4
2018-Jun-18 02:29N 34°23' W 119°30'713.8
2018-Jun-18 02:00N 34°20' W 119°38'4 7.9
2018-Jun-18 01:30N 34°21' W 119°33'3 5.8
2018-Jun-18 00:58N 34°23' W 119°31'3 5.8
2018-Jun-18 00:29N 34°21' W 119°33'1 2.0
2018-Jun-17 23:56N 34°20' W 119°34'0 0.0
2018-Jun-17 23:30N 34°20' W 119°34'0 0.0
2018-Jun-17 23:00N 34°20' W 119°34'0 0.0
2018-Jun-17 22:29N 34°20' W 119°34'1 3.0
2018-Jun-17 22:00N 34°20' W 119°35'1 1.3
2018-Jun-17 21:30N 34°20' W 119°36'0 0.0
2018-Jun-17 21:00N 34°20' W 119°36'0 0.0
2018-Jun-17 20:29N 34°20' W 119°36'0 0.0
2018-Jun-17 19:58N 34°20' W 119°36'0 0.0
2018-Jun-17 19:30N 34°20' W 119°36'611.5
2018-Jun-17 19:00N 34°20' W 119°29'510.9
2018-Jun-17 18:30N 34°20' W 119°36'1 2.5
2018-Jun-17 18:00N 34°20' W 119°37'3 5.7
2018-Jun-17 17:29N 34°20' W 119°34'0 0.2
2018-Jun-17 17:00N 34°20' W 119°34'3 5.9
2018-Jun-17 16:30N 34°17' W 119°35'0 0.0
2018-Jun-17 15:59N 34°17' W 119°35'0 0.0
2018-Jun-17 15:29N 34°17' W 119°35'3 6.1
2018-Jun-17 15:00N 34°20' W 119°34'1 1.9
2018-Jun-17 14:30N 34°21' W 119°33'4 8.0
2018-Jun-17 13:59N 34°20' W 119°38'612.6
2018-Jun-17 13:30N 34°22' W 119°31'1 1.9
2018-Jun-17 13:00N 34°23' W 119°30'1 1.4
2018-Jun-17 12:27N 34°22' W 119°30'0 0.0
2018-Jun-17 11:50N 34°22' W 119°30'0 0.0
2018-Jun-17 11:23N 34°22' W 119°30'0 0.0
2018-Jun-17 10:59N 34°22' W 119°30'0 0.0
2018-Jun-17 10:30N 34°22' W 119°30'0 0.0
2018-Jun-17 10:00N 34°22' W 119°30'0 0.0
2018-Jun-17 09:29N 34°22' W 119°30'0 0.0
2018-Jun-17 09:00N 34°22' W 119°30'0 0.0
2018-Jun-17 08:29N 34°22' W 119°30'0 0.0
2018-Jun-17 07:58N 34°22' W 119°30'0 0.0
2018-Jun-17 07:29N 34°22' W 119°30'0 0.0
2018-Jun-17 06:57N 34°22' W 119°30'0 0.0
2018-Jun-17 06:29N 34°22' W 119°30'0 0.0
2018-Jun-17 05:49N 34°22' W 119°30'0 0.0
2018-Jun-17 05:30N 34°22' W 119°30'0 0.0
2018-Jun-17 04:57N 34°22' W 119°30'0 0.0
2018-Jun-17 04:29N 34°22' W 119°30'0 0.0
2018-Jun-17 03:59N 34°22' W 119°30'0 0.0
2018-Jun-17 03:27N 34°22' W 119°30'0 0.0
2018-Jun-17 02:57N 34°22' W 119°30'0 0.0
2018-Jun-17 02:30N 34°22' W 119°30'5 9.3
2018-Jun-17 02:00N 34°20' W 119°35'2 3.8
2018-Jun-17 01:30N 34°21' W 119°33'3 5.3
2018-Jun-17 01:00N 34°23' W 119°31'0 0.4
2018-Jun-17 00:30N 34°23' W 119°31'611.9
2018-Jun-16 23:59N 34°20' W 119°37'0 0.0
2018-Jun-16 23:29N 34°20' W 119°37'3 7.1
2018-Jun-16 23:00N 34°23' W 119°38'3 6.2
2018-Jun-16 22:30N 34°24' W 119°42'0 0.0
2018-Jun-16 21:56N 34°24' W 119°42'0 0.0
2018-Jun-16 21:25N 34°24' W 119°42'1 3.1
2018-Jun-16 20:59N 34°24' W 119°40'510.7
2018-Jun-16 20:30N 34°20' W 119°36'5 9.7
2018-Jun-16 19:57N 34°23' W 119°30'3 7.9
2018-Jun-16 19:31N 34°20' W 119°29'915.9
2018-Jun-16 18:58N 34°12' W 119°26'1 1.8
2018-Jun-16 18:30N 34°11' W 119°25'0 0.1
2018-Jun-16 18:00N 34°11' W 119°25'0 0.0
2018-Jun-16 17:29N 34°11' W 119°25'613.4
2018-Jun-16 17:00N 34°16' W 119°31'713.5
2018-Jun-16 16:30N 34°20' W 119°37'0 0.2
2018-Jun-16 16:00N 34°20' W 119°37'1 1.2
2018-Jun-16 15:30N 34°20' W 119°36'0 0.2
2018-Jun-16 15:00N 34°20' W 119°36'4 9.0
2018-Jun-16 14:30N 34°22' W 119°31'611.7
2018-Jun-16 14:00N 34°20' W 119°38'611.5
2018-Jun-16 13:30N 34°22' W 119°31'1 2.9
2018-Jun-16 13:00N 34°23' W 119°30'1 1.3
2018-Jun-16 12:28N 34°22' W 119°30'0 0.0
2018-Jun-16 11:57N 34°23' W 119°30'0 0.0
2018-Jun-16 11:29N 34°23' W 119°30'0 0.0
2018-Jun-16 10:59N 34°23' W 119°30'0 0.0
2018-Jun-16 10:29N 34°23' W 119°30'0 0.0
2018-Jun-16 10:00N 34°23' W 119°30'0 0.1
2018-Jun-16 09:30N 34°23' W 119°30'0 0.0
2018-Jun-16 09:01N 34°23' W 119°30'0 0.0
2018-Jun-16 08:27N 34°23' W 119°30'0 0.0
2018-Jun-16 07:53N 34°23' W 119°30'0 0.0
2018-Jun-16 07:30N 34°23' W 119°30'0 0.0
2018-Jun-16 07:00N 34°23' W 119°30'0 0.0
2018-Jun-16 06:29N 34°23' W 119°30'612.2
2018-Jun-16 06:00N 34°20' W 119°36'611.6
2018-Jun-16 05:30N 34°22' W 119°30'0 0.0
2018-Jun-16 05:00N 34°22' W 119°30'0 0.0
2018-Jun-16 04:27N 34°22' W 119°30'0 0.0
2018-Jun-16 03:58N 34°22' W 119°30'0 0.0
2018-Jun-16 03:28N 34°22' W 119°30'0 0.0
2018-Jun-16 03:00N 34°22' W 119°30'0 0.0
2018-Jun-16 02:30N 34°22' W 119°30'0 0.0
2018-Jun-16 01:59N 34°22' W 119°30'0 0.7
2018-Jun-16 01:30N 34°23' W 119°30'0 0.8
2018-Jun-16 00:59N 34°23' W 119°30'1 1.5
2018-Jun-16 00:29N 34°22' W 119°30'0 0.0
2018-Jun-15 23:58N 34°22' W 119°30'0 0.0
2018-Jun-15 23:29N 34°22' W 119°30'0 0.5
2018-Jun-15 23:00N 34°23' W 119°30'6 9.4
2018-Jun-15 22:24N 34°20' W 119°36'1 2.0
2018-Jun-15 22:00N 34°20' W 119°37'3 5.3
2018-Jun-15 21:30N 34°20' W 119°34'0 0.0
2018-Jun-15 20:58N 34°20' W 119°34'0 0.0
2018-Jun-15 20:24N 34°20' W 119°34'1 1.9
2018-Jun-15 19:59N 34°20' W 119°33'3 5.9
2018-Jun-15 19:29N 34°23' W 119°31'611.6
2018-Jun-15 18:57N 34°20' W 119°37'0 0.0
2018-Jun-15 18:22N 34°20' W 119°37'0 0.0
2018-Jun-15 17:55N 34°20' W 119°37'1 2.4
2018-Jun-15 17:30N 34°20' W 119°36'0 0.1
2018-Jun-15 16:59N 34°20' W 119°36'0 0.0
2018-Jun-15 16:28N 34°20' W 119°36'1 2.4
2018-Jun-15 15:54N 34°20' W 119°35'511.8
2018-Jun-15 15:31N 34°23' W 119°30'4 7.6
2018-Jun-15 14:59N 34°20' W 119°34'3 6.1
2018-Jun-15 14:30N 34°20' W 119°37'2 3.7
2018-Jun-15 13:56N 34°20' W 119°35'511.0
2018-Jun-15 13:30N 34°23' W 119°30'0 0.3
2018-Jun-15 13:00N 34°23' W 119°30'1 1.2
2018-Jun-15 12:30N 34°23' W 119°30'0 0.0
2018-Jun-15 12:00N 34°23' W 119°30'0 0.0
2018-Jun-15 11:29N 34°23' W 119°30'0 0.0
2018-Jun-15 10:55N 34°23' W 119°30'0 0.0
2018-Jun-15 10:27N 34°23' W 119°30'4 8.7
2018-Jun-15 09:59N 34°20' W 119°34'0 0.3
2018-Jun-15 09:30N 34°20' W 119°34'0 0.0
2018-Jun-15 08:57N 34°20' W 119°34'0 0.0
2018-Jun-15 08:30N 34°20' W 119°34'0 0.0
2018-Jun-15 07:59N 34°20' W 119°34'0 0.0
2018-Jun-15 07:26N 34°20' W 119°34'0 0.0
2018-Jun-15 06:53N 34°20' W 119°34'0 0.1
2018-Jun-15 06:24N 34°20' W 119°34'0 0.0
2018-Jun-15 05:57N 34°20' W 119°34'0 0.0
2018-Jun-15 05:14N 34°20' W 119°34'0 0.0
2018-Jun-15 04:56N 34°20' W 119°34'0 0.0
2018-Jun-15 04:20N 34°20' W 119°34'0 0.0
2018-Jun-15 03:52N 34°20' W 119°34'0 0.1
2018-Jun-15 03:24N 34°20' W 119°34'1 2.6
2018-Jun-15 02:55N 34°21' W 119°32'1 2.6
2018-Jun-15 02:26N 34°20' W 119°34'0 0.6
2018-Jun-15 01:53N 34°20' W 119°34'4 8.9
2018-Jun-15 01:28N 34°23' W 119°31'0 0.7
2018-Jun-15 01:00N 34°23' W 119°31'3 6.6
2018-Jun-15 00:30N 34°20' W 119°34'0 0.0
2018-Jun-14 23:58N 34°20' W 119°34'1 1.5
2018-Jun-14 23:30N 34°20' W 119°33'3 6.6
2018-Jun-14 23:00N 34°23' W 119°30'611.4
2018-Jun-14 22:30N 34°20' W 119°36'0 0.1
2018-Jun-14 22:00N 34°20' W 119°36'0 0.1
2018-Jun-14 21:30N 34°20' W 119°36'1 1.5
2018-Jun-14 21:00N 34°20' W 119°35'2 4.1
2018-Jun-14 20:30N 34°20' W 119°38'1 1.2
2018-Jun-14 19:59N 34°20' W 119°37'0 0.7
2018-Jun-14 19:30N 34°20' W 119°37'0 0.9
2018-Jun-14 19:00N 34°20' W 119°36'3 6.2
2018-Jun-14 18:30N 34°21' W 119°33'3 5.9
2018-Jun-14 18:00N 34°23' W 119°30'0 0.1
2018-Jun-14 17:30N 34°23' W 119°31'612.5
2018-Jun-14 17:00N 34°20' W 119°37'3 5.9
2018-Jun-14 16:30N 34°20' W 119°34'4 7.9
2018-Jun-14 16:00N 34°23' W 119°30'0 0.0
2018-Jun-14 15:29N 34°23' W 119°30'0 0.1
2018-Jun-14 14:59N 34°23' W 119°30'5 9.9
2018-Jun-14 14:30N 34°20' W 119°35'0 0.4
2018-Jun-14 14:00N 34°20' W 119°35'5 9.5
2018-Jun-14 13:30N 34°23' W 119°30'0 0.3
2018-Jun-14 12:58N 34°23' W 119°30'1 1.6
2018-Jun-14 12:30N 34°22' W 119°30'0 0.0
2018-Jun-14 12:00N 34°22' W 119°30'0 0.0
2018-Jun-14 11:24N 34°22' W 119°30'0 0.0
2018-Jun-14 10:59N 34°23' W 119°30'0 0.0
2018-Jun-14 10:29N 34°23' W 119°30'0 0.0
2018-Jun-14 10:00N 34°23' W 119°30'0 0.0
2018-Jun-14 09:29N 34°23' W 119°30'4 9.4
2018-Jun-14 09:00N 34°20' W 119°34'1 1.0
2018-Jun-14 08:30N 34°20' W 119°34'2 4.6
2018-Jun-14 08:00N 34°22' W 119°32'2 4.4
2018-Jun-14 07:30N 34°20' W 119°34'0 0.0
2018-Jun-14 07:00N 34°20' W 119°34'0 0.0
2018-Jun-14 06:24N 34°20' W 119°34'0 0.0
2018-Jun-14 06:00N 34°20' W 119°34'0 0.0
2018-Jun-14 05:30N 34°20' W 119°34'0 0.0
2018-Jun-14 05:00N 34°20' W 119°34'0 0.0
2018-Jun-14 04:30N 34°20' W 119°34'0 0.0
2018-Jun-14 04:00N 34°20' W 119°34'0 0.2
2018-Jun-14 03:30N 34°20' W 119°34'0 1.0
2018-Jun-14 03:00N 34°20' W 119°33'0 0.3
2018-Jun-14 02:30N 34°20' W 119°33'3 5.2
2018-Jun-14 01:59N 34°20' W 119°36'611.8
2018-Jun-14 01:30N 34°23' W 119°30'0 0.8
2018-Jun-14 01:00N 34°23' W 119°31'1 1.6
2018-Jun-14 00:29N 34°22' W 119°30'0 0.0
2018-Jun-14 00:00N 34°23' W 119°30'0 0.0
2018-Jun-13 23:30N 34°23' W 119°30'1 1.5
2018-Jun-13 23:00N 34°23' W 119°30'4 8.3
2018-Jun-13 22:30N 34°20' W 119°34'2 3.6
2018-Jun-13 21:59N 34°20' W 119°36'1 2.3
2018-Jun-13 21:31N 34°19' W 119°37'2 4.8
2018-Jun-13 21:01N 34°21' W 119°37'5 9.9
2018-Jun-13 20:30N 34°24' W 119°42'0 0.0
2018-Jun-13 20:00N 34°24' W 119°42'0 0.0
2018-Jun-13 19:30N 34°24' W 119°42'0 0.0
2018-Jun-13 19:00N 34°24' W 119°42'2 3.5
2018-Jun-13 18:30N 34°24' W 119°39'714.9
2018-Jun-13 18:01N 34°17' W 119°35'4 7.3
2018-Jun-13 17:30N 34°20' W 119°33'3 5.7
2018-Jun-13 17:01N 34°23' W 119°31'510.0
2018-Jun-13 16:30N 34°20' W 119°36'2 4.0
2018-Jun-13 16:00N 34°18' W 119°35'5 9.4
2018-Jun-13 15:30N 34°22' W 119°31'2 4.6
2018-Jun-13 15:00N 34°20' W 119°33'3 5.6
2018-Jun-13 14:30N 34°20' W 119°36'2 3.2
2018-Jun-13 14:00N 34°20' W 119°34'4 8.7
2018-Jun-13 13:30N 34°23' W 119°30'0 0.0
2018-Jun-13 12:59N 34°23' W 119°30'3 5.3
2018-Jun-13 12:29N 34°21' W 119°32'1 3.0
2018-Jun-13 12:00N 34°20' W 119°34'0 0.0
2018-Jun-13 11:30N 34°20' W 119°34'0 0.0
2018-Jun-13 11:00N 34°20' W 119°34'0 0.0
2018-Jun-13 10:24N 34°20' W 119°34'0 0.0
2018-Jun-13 10:00N 34°20' W 119°34'0 0.0
2018-Jun-13 09:27N 34°20' W 119°34'0 0.0
2018-Jun-13 08:59N 34°20' W 119°34'0 0.0
2018-Jun-13 08:28N 34°20' W 119°34'0 0.0
2018-Jun-13 07:58N 34°20' W 119°34'0 0.0
2018-Jun-13 07:28N 34°20' W 119°34'0 0.0
2018-Jun-13 06:53N 34°20' W 119°34'0 0.0
2018-Jun-13 06:29N 34°20' W 119°34'0 0.0
2018-Jun-13 05:58N 34°20' W 119°34'0 0.0
2018-Jun-13 05:30N 34°20' W 119°34'0 0.0
2018-Jun-13 05:00N 34°20' W 119°34'0 0.0
2018-Jun-13 04:30N 34°20' W 119°34'0 0.0
2018-Jun-13 04:00N 34°20' W 119°34'0 0.2
2018-Jun-13 03:12N 34°20' W 119°34'1 4.1
2018-Jun-13 02:59N 34°20' W 119°33'1 1.6
2018-Jun-13 02:27N 34°20' W 119°34'2 4.7
2018-Jun-13 02:00N 34°20' W 119°36'611.0
2018-Jun-13 01:30N 34°23' W 119°30'1 1.3
2018-Jun-13 01:00N 34°22' W 119°31'1 1.2
2018-Jun-13 00:26N 34°22' W 119°30'0 0.0
2018-Jun-13 00:00N 34°22' W 119°30'0 0.0
2018-Jun-12 23:30N 34°22' W 119°30'1 1.5
2018-Jun-12 23:00N 34°23' W 119°30'3 5.2
2018-Jun-12 22:30N 34°21' W 119°32'4 8.9
2018-Jun-12 22:00N 34°20' W 119°38'2 3.3
2018-Jun-12 21:30N 34°19' W 119°36'1 2.0
2018-Jun-12 21:00N 34°20' W 119°37'0 0.9
2018-Jun-12 20:30N 34°20' W 119°37'0 0.0
2018-Jun-12 20:00N 34°20' W 119°37'0 0.9
2018-Jun-12 19:30N 34°20' W 119°37'1 1.8
2018-Jun-12 19:00N 34°20' W 119°38'4 7.1
2018-Jun-12 18:30N 34°20' W 119°34'2 4.1
2018-Jun-12 17:59N 34°20' W 119°36'0 0.1
2018-Jun-12 17:30N 34°20' W 119°36'2 4.0
2018-Jun-12 16:58N 34°20' W 119°34'3 7.3
2018-Jun-12 16:30N 34°23' W 119°31'1 1.2
2018-Jun-12 15:58N 34°23' W 119°30'0 0.0
2018-Jun-12 15:30N 34°23' W 119°30'2 3.3
2018-Jun-12 15:00N 34°22' W 119°32'4 8.1
2018-Jun-12 14:28N 34°19' W 119°36'1 1.3
2018-Jun-12 14:00N 34°20' W 119°36'611.2
2018-Jun-12 13:30N 34°23' W 119°30'0 0.7
2018-Jun-12 12:59N 34°23' W 119°31'1 1.9
2018-Jun-12 12:30N 34°22' W 119°31'3 5.5
2018-Jun-12 12:00N 34°20' W 119°34'0 0.0
2018-Jun-12 11:27N 34°20' W 119°34'0 0.0
2018-Jun-12 11:00N 34°20' W 119°34'0 0.0
2018-Jun-12 10:30N 34°20' W 119°34'0 0.0
2018-Jun-12 10:00N 34°20' W 119°34'0 0.0
2018-Jun-12 09:30N 34°20' W 119°34'0 0.0
2018-Jun-12 08:59N 34°20' W 119°34'0 0.0
2018-Jun-12 08:30N 34°20' W 119°34'0 0.0
2018-Jun-12 08:00N 34°20' W 119°34'0 0.0
2018-Jun-12 07:30N 34°20' W 119°34'0 0.0
2018-Jun-12 06:59N 34°20' W 119°34'0 0.0
2018-Jun-12 06:28N 34°20' W 119°34'0 0.3
2018-Jun-12 06:00N 34°20' W 119°34'0 0.1
2018-Jun-12 05:29N 34°20' W 119°34'0 0.4
2018-Jun-12 05:00N 34°20' W 119°33'0 0.3
2018-Jun-12 04:30N 34°20' W 119°34'3 5.3
2018-Jun-12 04:01N 34°20' W 119°37'0 0.0
2018-Jun-12 03:30N 34°20' W 119°37'0 0.4
2018-Jun-12 03:00N 34°20' W 119°37'611.4
2018-Jun-12 02:30N 34°23' W 119°31'611.6
2018-Jun-12 02:00N 34°20' W 119°37'612.3
2018-Jun-12 01:30N 34°23' W 119°30'1 1.0
2018-Jun-12 00:59N 34°23' W 119°31'1 1.7
2018-Jun-12 00:29N 34°23' W 119°30'1 2.8
2018-Jun-12 00:00N 34°22' W 119°31'4 9.0
2018-Jun-11 23:30N 34°20' W 119°36'611.4
2018-Jun-11 23:00N 34°22' W 119°30'2 4.9
2018-Jun-11 22:30N 34°21' W 119°32'5 9.0
2018-Jun-11 21:58N 34°20' W 119°38'3 7.5
2018-Jun-11 21:30N 34°17' W 119°35'3 6.3
2018-Jun-11 21:00N 34°20' W 119°37'1 1.9
2018-Jun-11 20:30N 34°20' W 119°36'0 0.1
2018-Jun-11 20:00N 34°20' W 119°36'2 4.1
2018-Jun-11 19:30N 34°20' W 119°34'0 0.0
2018-Jun-11 19:00N 34°20' W 119°34'2 4.7
2018-Jun-11 18:30N 34°20' W 119°37'0 0.4
2018-Jun-11 18:00N 34°20' W 119°37'611.1
2018-Jun-11 17:29N 34°25' W 119°41'0 0.7
2018-Jun-11 16:59N 34°24' W 119°42'0 0.8
2018-Jun-11 16:30N 34°25' W 119°41'612.0
2018-Jun-11 16:00N 34°20' W 119°36'611.4
2018-Jun-11 15:29N 34°23' W 119°30'5 9.7
2018-Jun-11 14:59N 34°19' W 119°34'2 4.6
2018-Jun-11 14:30N 34°20' W 119°37'1 1.4
2018-Jun-11 13:59N 34°20' W 119°36'510.6
2018-Jun-11 13:30N 34°23' W 119°31'0 0.4
2018-Jun-11 12:58N 34°23' W 119°31'1 1.6
2018-Jun-11 12:26N 34°22' W 119°30'0 0.0
2018-Jun-11 11:58N 34°23' W 119°30'0 0.0
2018-Jun-11 11:30N 34°23' W 119°30'0 0.0
2018-Jun-11 10:59N 34°23' W 119°30'0 0.0
2018-Jun-11 10:30N 34°23' W 119°30'0 0.0
2018-Jun-11 10:00N 34°23' W 119°30'0 0.0
2018-Jun-11 09:30N 34°23' W 119°30'0 0.0
2018-Jun-11 09:00N 34°23' W 119°30'0 0.0
2018-Jun-11 08:30N 34°23' W 119°30'0 0.0
2018-Jun-11 07:59N 34°23' W 119°30'0 0.0
2018-Jun-11 07:27N 34°23' W 119°30'0 0.0
2018-Jun-11 06:58N 34°23' W 119°30'0 0.0
2018-Jun-11 06:30N 34°23' W 119°30'0 0.0
2018-Jun-11 06:00N 34°23' W 119°30'0 0.0
2018-Jun-11 05:28N 34°23' W 119°30'0 0.0
2018-Jun-11 05:00N 34°23' W 119°30'0 0.0
2018-Jun-11 04:29N 34°23' W 119°30'0 0.0
2018-Jun-11 04:00N 34°23' W 119°30'0 0.0
2018-Jun-11 03:30N 34°23' W 119°30'0 0.0
2018-Jun-11 02:58N 34°23' W 119°30'0 0.0
2018-Jun-11 02:30N 34°23' W 119°30'0 0.0
2018-Jun-11 02:00N 34°23' W 119°30'5 8.9
2018-Jun-11 01:30N 34°20' W 119°35'3 5.1
2018-Jun-11 01:00N 34°21' W 119°32'2 4.0
2018-Jun-11 00:30N 34°23' W 119°30'0 0.0
2018-Jun-11 00:00N 34°23' W 119°30'0 0.0
2018-Jun-10 23:30N 34°23' W 119°30'0 0.0
2018-Jun-10 23:00N 34°23' W 119°30'4 8.6
2018-Jun-10 22:30N 34°20' W 119°34'3 5.5
2018-Jun-10 22:00N 34°18' W 119°36'0 0.8
2018-Jun-10 21:30N 34°17' W 119°35'0 0.0
2018-Jun-10 21:00N 34°17' W 119°35'0 0.0
2018-Jun-10 20:29N 34°17' W 119°35'0 0.0
2018-Jun-10 20:00N 34°17' W 119°35'0 0.5
2018-Jun-10 19:30N 34°17' W 119°35'3 6.1
2018-Jun-10 19:00N 34°20' W 119°34'0 0.4
2018-Jun-10 18:30N 34°20' W 119°34'0 0.0
2018-Jun-10 18:00N 34°20' W 119°34'0 0.0
2018-Jun-10 17:30N 34°20' W 119°34'0 0.0
2018-Jun-10 17:00N 34°20' W 119°34'0 0.0
2018-Jun-10 16:31N 34°20' W 119°34'3 5.8
2018-Jun-10 15:59N 34°20' W 119°38'5 8.9
2018-Jun-10 15:28N 34°20' W 119°32'3 6.3
2018-Jun-10 15:00N 34°20' W 119°28'4 8.8
2018-Jun-10 14:30N 34°20' W 119°34'4 3.9
2018-Jun-10 13:31N 34°23' W 119°31'0 0.4
2018-Jun-10 13:00N 34°23' W 119°31'1 1.2
2018-Jun-10 12:29N 34°23' W 119°30'0 0.0
2018-Jun-10 12:00N 34°23' W 119°30'0 0.0
2018-Jun-10 11:30N 34°23' W 119°30'0 0.0
2018-Jun-10 10:57N 34°23' W 119°30'0 0.0
2018-Jun-10 10:29N 34°23' W 119°30'0 0.0
2018-Jun-10 09:58N 34°23' W 119°30'0 0.0
2018-Jun-10 09:29N 34°23' W 119°30'0 0.0
2018-Jun-10 08:57N 34°23' W 119°30'0 0.0
2018-Jun-10 08:28N 34°23' W 119°30'0 0.0
2018-Jun-10 07:58N 34°23' W 119°30'0 0.0
2018-Jun-10 07:29N 34°23' W 119°30'0 0.0
2018-Jun-10 07:00N 34°23' W 119°30'0 0.0
2018-Jun-10 06:30N 34°23' W 119°30'0 0.0
2018-Jun-10 06:00N 34°23' W 119°30'0 0.0
2018-Jun-10 05:30N 34°23' W 119°30'0 0.0
2018-Jun-10 04:59N 34°23' W 119°30'0 0.0
2018-Jun-10 04:30N 34°23' W 119°30'0 0.0
2018-Jun-10 03:57N 34°23' W 119°30'0 0.0
2018-Jun-10 03:30N 34°23' W 119°30'0 0.0
2018-Jun-10 02:58N 34°23' W 119°30'0 0.0
2018-Jun-10 02:29N 34°23' W 119°30'0 0.0
2018-Jun-10 02:00N 34°23' W 119°30'0 0.0
2018-Jun-10 01:30N 34°23' W 119°30'0 0.0
2018-Jun-10 01:01N 34°23' W 119°30'0 0.0
2018-Jun-10 00:26N 34°23' W 119°30'0 0.0
2018-Jun-09 23:58N 34°23' W 119°30'0 0.0
2018-Jun-09 23:30N 34°23' W 119°30'0 0.0
2018-Jun-09 23:00N 34°23' W 119°30'2 3.2
2018-Jun-09 22:30N 34°22' W 119°32'2 4.8
2018-Jun-09 22:01N 34°20' W 119°34'3 6.9
2018-Jun-09 21:30N 34°20' W 119°38'1 2.8
2018-Jun-09 21:00N 34°20' W 119°36'611.6
2018-Jun-09 20:29N 34°24' W 119°41'0 0.7
2018-Jun-09 19:57N 34°24' W 119°42'0 0.0
2018-Jun-09 19:29N 34°24' W 119°42'0 0.0
2018-Jun-09 19:00N 34°24' W 119°42'0 0.0
2018-Jun-09 18:27N 34°24' W 119°42'4 7.9
2018-Jun-09 17:59N 34°23' W 119°37'3 6.0
2018-Jun-09 17:29N 34°20' W 119°36'0 0.0
2018-Jun-09 16:58N 34°20' W 119°36'0 0.0
2018-Jun-09 16:28N 34°20' W 119°36'0 0.0
2018-Jun-09 15:58N 34°20' W 119°36'0 0.1
2018-Jun-09 15:00N 34°20' W 119°36'0 0.5
2018-Jun-09 14:30N 34°20' W 119°36'1 3.0
2018-Jun-09 14:01N 34°20' W 119°38'612.6
2018-Jun-09 13:30N 34°23' W 119°31'0 0.3
2018-Jun-09 13:00N 34°23' W 119°31'1 1.4
2018-Jun-09 12:29N 34°22' W 119°30'0 0.0
2018-Jun-09 12:00N 34°23' W 119°30'0 0.0
2018-Jun-09 11:29N 34°23' W 119°30'0 0.0
2018-Jun-09 10:57N 34°23' W 119°30'0 0.0
2018-Jun-09 10:29N 34°23' W 119°30'0 0.0
2018-Jun-09 10:00N 34°23' W 119°30'0 0.0
2018-Jun-09 09:28N 34°23' W 119°30'0 0.0
2018-Jun-09 09:00N 34°23' W 119°30'0 0.0
2018-Jun-09 08:30N 34°23' W 119°30'0 0.0
2018-Jun-09 07:55N 34°23' W 119°30'0 0.0
2018-Jun-09 07:30N 34°23' W 119°30'0 0.0
2018-Jun-09 07:00N 34°23' W 119°30'0 0.0
2018-Jun-09 06:28N 34°23' W 119°30'0 0.0
2018-Jun-09 05:58N 34°23' W 119°30'0 0.0
2018-Jun-09 05:25N 34°23' W 119°30'0 0.0
2018-Jun-09 05:00N 34°23' W 119°30'0 0.0
2018-Jun-09 04:29N 34°23' W 119°30'0 0.0
2018-Jun-09 04:00N 34°23' W 119°30'0 0.0
2018-Jun-09 03:30N 34°23' W 119°30'0 0.0
2018-Jun-09 02:59N 34°23' W 119°30'0 0.0
2018-Jun-09 02:29N 34°22' W 119°30'0 0.0
2018-Jun-09 01:59N 34°23' W 119°30'4 8.4
2018-Jun-09 01:30N 34°20' W 119°34'2 4.7
2018-Jun-09 01:00N 34°21' W 119°32'2 3.4
2018-Jun-09 00:29N 34°23' W 119°30'0 0.0
2018-Jun-08 23:58N 34°23' W 119°30'0 0.0
2018-Jun-08 23:29N 34°23' W 119°30'1 1.5
2018-Jun-08 22:59N 34°23' W 119°30'510.3
2018-Jun-08 22:31N 34°20' W 119°35'1 1.8
2018-Jun-08 22:00N 34°20' W 119°36'2 4.2
2018-Jun-08 21:30N 34°20' W 119°34'3 5.4
2018-Jun-08 21:00N 34°20' W 119°37'1 2.9
2018-Jun-08 20:30N 34°19' W 119°35'611.2
2018-Jun-08 20:00N 34°23' W 119°30'4 8.4
2018-Jun-08 19:30N 34°20' W 119°34'3 5.6
2018-Jun-08 19:00N 34°20' W 119°37'0 0.3
2018-Jun-08 18:28N 34°20' W 119°37'0 0.0
2018-Jun-08 17:57N 34°20' W 119°37'0 0.0
2018-Jun-08 17:29N 34°20' W 119°37'0 1.0
2018-Jun-08 17:00N 34°20' W 119°38'0 0.6
2018-Jun-08 16:30N 34°20' W 119°38'611.9
2018-Jun-08 16:01N 34°22' W 119°31'1 1.3
2018-Jun-08 15:28N 34°23' W 119°30'2 3.3
2018-Jun-08 14:59N 34°22' W 119°32'511.0
2018-Jun-08 14:31N 34°18' W 119°36'2 4.4
2018-Jun-08 14:00N 34°20' W 119°36'611.4
2018-Jun-08 13:30N 34°23' W 119°30'  

Dump ship's entire track history